Martins Ferry, Ohio
Current Conditions -  °F | °C
As of 6:53 PM on Monday 20 Oct 2014 (Local Time) from KHLG Reporting Station
Overcast Overcast  
Wind Chill: 54°   Ceiling: 10000
Heat Index: 54°   Visibility: 10mi
Dew Point: 42°   Wind: 7mph
Humidity: 64%   Direction: 170°S
Pressure: 29.88"   Gusts: NA
Location:  40.1°N, 80.72°W
Report Text: KHLG 202253Z 17006KT 10SM BKN100 OVC120 12/06 A2988 RMK AO2 SLP125 T01220056
Loading
Personal Weather Stations






























Interactive Weather Map
Tropical Storm Tracking
New forecast layout! Learn more

10-Day Weather Forecast

Advertisements
Track Severe Weather on mobile